Time;durP1;ratioP1;P1;durP2;ratioP2;P2;SDS_P1;SDS_P2;PMS_P1;PMS_P2;Temp;Humidity;BMP_temperature;BMP_pressure;BME280_temperature;BME280_humidity;BME280_pressure;Samples;Min_cycle;Max_cycle;Signal;HPM_P1;HPM_P2
2021/07/05 00:04:31;;;;;;;0.10;0.10;;;;;;;17.00;89.41;101003.16;10448781;28;20032;-60
2021/07/05 00:09:32;;;;;;;0.10;0.10;;;;;;;17.02;89.48;100997.56;10455977;28;20109;-61
2021/07/05 00:14:33;;;;;;;0.10;0.10;;;;;;;17.01;89.29;100999.41;10442787;28;20075;-63
2021/07/05 00:19:33;;;;;;;0.10;0.10;;;;;;;17.00;88.87;100991.56;10454713;28;20040;-63
2021/07/05 00:24:34;;;;;;;0.10;0.10;;;;;;;17.01;88.72;100993.19;10454041;28;20503;-61
2021/07/05 00:29:34;;;;;;;0.10;0.10;;;;;;;17.00;88.69;100991.56;10454540;28;20029;-60
2021/07/05 00:34:34;;;;;;;0.10;0.10;;;;;;;16.97;88.67;100992.78;10445646;28;20234;-62
2021/07/05 00:39:35;;;;;;;0.10;0.10;;;;;;;16.95;88.93;100989.44;10454451;28;20021;-58
2021/07/05 00:44:36;;;;;;;0.10;0.10;;;;;;;16.97;90.02;100990.09;10443096;28;20264;-63
2021/07/05 00:49:36;;;;;;;0.10;0.10;;;;;;;17.00;90.11;100978.94;10454054;28;20025;-60
2021/07/05 00:54:36;;;;;;;0.10;0.10;;;;;;;17.04;90.32;100968.59;10451733;28;20032;-60
2021/07/05 00:59:37;;;;;;;0.10;0.10;;;;;;;17.05;90.21;100960.34;10452052;28;20418;-60
2021/07/05 01:04:37;;;;;;;0.10;0.10;;;;;;;17.07;90.08;100960.13;10450477;28;20411;-61
2021/07/05 01:09:39;;;;;;;0.10;0.10;;;;;;;17.07;90.02;100950.19;10432826;28;20435;-61
2021/07/05 01:14:39;;;;;;;0.10;0.10;;;;;;;17.08;90.15;100949.16;10428148;28;20029;-61
2021/07/05 01:19:41;;;;;;;0.10;0.10;;;;;;;17.09;90.22;100937.34;10453994;28;20116;-60
2021/07/05 01:24:43;;;;;;;0.10;0.10;;;;;;;17.10;89.99;100933.63;10452228;28;21881;-63
2021/07/05 01:29:44;;;;;;;0.10;0.10;;;;;;;17.08;89.67;100924.94;10452455;28;20399;-64
2021/07/05 01:34:44;;;;;;;0.10;0.10;;;;;;;17.10;90.04;100933.63;10446414;28;20024;-63
2021/07/05 01:39:45;;;;;;;0.10;0.10;;;;;;;17.11;90.56;100945.25;10452087;28;20020;-61
2021/07/05 01:44:46;;;;;;;0.00;0.00;;;;;;;17.09;90.78;100937.34;10440844;28;20024;-62
2021/07/05 01:49:46;;;;;;;0.10;0.10;;;;;;;17.07;90.97;100936.72;10450372;28;20455;-61
2021/07/05 01:54:46;;;;;;;0.10;0.10;;;;;;;17.04;90.62;100939.81;10449764;28;20024;-61
2021/07/05 01:59:47;;;;;;;0.10;0.10;;;;;;;17.03;90.61;100930.09;10451032;28;20024;-60
2021/07/05 02:04:48;;;;;;;0.10;0.10;;;;;;;17.01;90.57;100939.38;10448357;28;20028;-60
2021/07/05 02:09:49;;;;;;;0.10;0.10;;;;;;;16.99;90.55;100939.59;10412361;28;20030;-63
2021/07/05 02:14:49;;;;;;;0.10;0.10;;;;;;;16.97;90.57;100941.66;10425999;28;20051;-63
2021/07/05 02:19:49;;;;;;;0.10;0.10;;;;;;;16.96;90.42;100937.31;10450145;28;20017;-64
2021/07/05 02:24:49;;;;;;;0.10;0.10;;;;;;;16.94;90.62;100939.34;10449871;28;20557;-62
2021/07/05 02:29:50;;;;;;;0.10;0.10;;;;;;;16.93;90.59;100945.78;10449972;28;20468;-64
2021/07/05 02:34:50;;;;;;;0.10;0.10;;;;;;;16.91;90.63;100947.81;10448722;28;20025;-64
2021/07/05 02:39:50;;;;;;;0.10;0.10;;;;;;;16.90;90.88;100954.22;10445732;28;20067;-64
2021/07/05 02:44:51;;;;;;;0.10;0.10;;;;;;;16.88;90.81;100945.53;10438665;28;20479;-64
2021/07/05 02:49:51;;;;;;;0.10;0.10;;;;;;;16.86;91.09;100950.28;10449293;28;20035;-63
2021/07/05 02:54:51;;;;;;;0.10;0.10;;;;;;;16.85;90.77;100949.44;10449057;28;20025;-64
2021/07/05 02:59:52;;;;;;;0.10;0.10;;;;;;;16.82;91.11;100951.69;10449214;28;20079;-64
2021/07/05 03:04:52;;;;;;;0.10;0.10;;;;;;;16.83;91.35;100947.97;10447755;28;20538;-62
2021/07/05 03:09:53;;;;;;;0.10;0.10;;;;;;;16.82;91.41;100946.31;10420505;28;20025;-64
2021/07/05 03:14:54;;;;;;;0.10;0.10;;;;;;;16.83;91.75;100951.50;10426679;28;20380;-64
2021/07/05 03:19:54;;;;;;;0.10;0.10;;;;;;;16.84;91.77;100938.88;10449396;28;20017;-61
2021/07/05 03:24:54;;;;;;;0.10;0.10;;;;;;;16.85;91.65;100952.13;10448203;28;20480;-65
2021/07/05 03:29:55;;;;;;;0.10;0.10;;;;;;;16.86;91.66;100961.03;10449097;28;20048;-64
2021/07/05 03:34:56;;;;;;;0.10;0.10;;;;;;;16.83;91.71;100950.66;10454556;28;20017;-63
2021/07/05 03:39:56;;;;;;;0.10;0.10;;;;;;;16.80;91.53;100953.75;10449281;28;20021;-64
2021/07/05 03:44:56;;;;;;;0.10;0.10;;;;;;;16.77;92.08;100954.16;10445389;28;20021;-64
2021/07/05 03:49:57;;;;;;;0.10;0.10;;;;;;;16.76;92.29;100945.25;10417957;28;20017;-66
2021/07/05 03:54:57;;;;;;;0.10;0.10;;;;;;;16.74;92.46;100948.09;10443311;28;20032;-65
2021/07/05 03:59:58;;;;;;;0.10;0.10;;;;;;;16.75;92.43;100939.00;10437699;28;20263;-65
2021/07/05 04:04:58;;;;;;;0.10;0.10;;;;;;;16.79;92.52;100942.16;10411155;28;20036;-70
2021/07/05 04:09:58;;;;;;;0.10;0.10;;;;;;;16.80;92.00;100943.00;10437177;28;20021;-71
2021/07/05 04:14:59;;;;;;;0.10;0.10;;;;;;;16.84;92.28;100934.34;10432290;28;20032;-67
2021/07/05 04:19:59;;;;;;;0.10;0.10;;;;;;;16.88;92.21;100934.78;10439921;28;20357;-67
2021/07/05 04:24:59;;;;;;;0.10;0.10;;;;;;;16.92;92.03;100933.34;10451618;28;20021;-68
2021/07/05 04:30:00;;;;;;;0.10;0.10;;;;;;;16.93;91.85;100932.31;10454711;28;20450;-67
2021/07/05 04:35:00;;;;;;;0.10;0.10;;;;;;;16.94;91.94;100932.09;10452332;28;20369;-68
2021/07/05 04:40:00;;;;;;;0.20;0.20;;;;;;;16.91;91.84;100929.81;10418529;28;20255;-66
2021/07/05 04:45:02;;;;;;;0.10;0.10;;;;;;;16.91;91.71;100929.00;10437064;28;20412;-68
2021/07/05 04:50:03;;;;;;;0.10;0.10;;;;;;;16.92;91.49;100930.66;10423954;28;20178;-68
2021/07/05 04:55:05;;;;;;;0.10;0.10;;;;;;;16.96;91.80;100921.16;10415166;28;20450;-67
2021/07/05 05:00:08;;;;;;;0.10;0.10;;;;;;;17.02;91.42;100917.69;10419986;28;20083;-64
2021/07/05 05:05:09;;;;;;;0.10;0.10;;;;;;;17.05;90.96;100932.59;10435652;28;20067;-65
2021/07/05 05:10:11;;;;;;;0.10;0.10;;;;;;;17.07;90.59;100930.50;10452897;28;20480;-65
2021/07/05 05:15:12;;;;;;;0.10;0.10;;;;;;;17.12;89.92;100931.56;10438634;28;20033;-66
2021/07/05 05:20:14;;;;;;;0.10;0.10;;;;;;;17.16;89.40;100938.25;10445243;28;20390;-69
2021/07/05 05:25:15;;;;;;;0.10;0.10;;;;;;;17.20;88.75;100926.03;10447476;28;20040;-66
2021/07/05 05:30:18;;;;;;;0.10;0.10;;;;;;;17.25;89.37;100924.59;10450939;28;20040;-65
2021/07/05 05:35:20;;;;;;;0.10;0.10;;;;;;;17.26;88.03;100923.56;10453014;28;20021;-66
2021/07/05 05:40:22;;;;;;;0.10;0.10;;;;;;;17.24;87.72;100931.84;10451577;28;20017;-66
2021/07/05 05:45:25;;;;;;;0.05;0.05;;;;;;;17.22;87.59;100930.38;10427009;28;20138;-65
2021/07/05 05:50:26;;;;;;;0.10;0.10;;;;;;;17.16;87.72;100932.84;10448879;28;20504;-65
2021/07/05 05:55:26;;;;;;;0.10;0.10;;;;;;;17.10;88.10;100939.00;10449684;28;20078;-66
2021/07/05 06:00:26;;;;;;;0.10;0.10;;;;;;;17.07;88.36;100950.19;10445807;28;20028;-65
2021/07/05 06:05:27;;;;;;;0.10;0.10;;;;;;;17.04;87.99;100945.19;10448254;28;20024;-65
2021/07/05 06:10:27;;;;;;;0.10;0.10;;;;;;;17.02;88.03;100949.97;10432559;28;20472;-65
2021/07/05 06:15:28;;;;;;;0.10;0.10;;;;;;;17.08;87.63;100948.34;10435858;28;20025;-65
2021/07/05 06:20:28;;;;;;;0.10;0.10;;;;;;;17.07;87.29;100952.88;10415973;28;20256;-64
2021/07/05 06:25:29;;;;;;;0.10;0.10;;;;;;;17.10;87.00;100949.78;10409476;28;20369;-65
2021/07/05 06:30:29;;;;;;;0.10;0.10;;;;;;;17.13;86.48;100949.41;10414637;28;20021;-65
2021/07/05 06:35:30;;;;;;;0.10;0.10;;;;;;;17.19;87.02;100954.00;10448606;28;20482;-65
2021/07/05 06:40:30;;;;;;;0.10;0.10;;;;;;;17.31;86.46;100945.34;10446435;28;20255;-65
2021/07/05 06:45:31;;;;;;;0.10;0.10;;;;;;;17.49;86.58;100942.09;10436897;28;20031;-65
2021/07/05 06:50:31;;;;;;;0.10;0.10;;;;;;;17.67;86.27;100946.91;10449036;28;20025;-66
2021/07/05 06:55:32;;;;;;;0.10;0.10;;;;;;;17.83;84.65;100947.41;10448113;28;20029;-66
2021/07/05 07:00:33;;;;;;;0.10;0.10;;;;;;;18.17;83.53;100942.06;10447626;28;20036;-66
2021/07/05 07:05:34;;;;;;;0.10;0.10;;;;;;;18.51;82.12;100933.75;10430405;28;20025;-63
2021/07/05 07:10:34;;;;;;;0.10;0.10;;;;;;;18.76;80.41;100938.53;10408928;28;20033;-65
2021/07/05 07:15:38;;;;;;;0.10;0.10;;;;;;;18.95;79.17;100928.75;10405800;28;20136;-69
2021/07/05 07:20:38;;;;;;;0.10;0.10;;;;;;;19.03;77.66;100925.00;10407684;28;20025;-66
2021/07/05 07:25:38;;;;;;;0.08;0.08;;;;;;;19.03;77.63;100922.28;10408504;28;20480;-66
2021/07/05 07:30:39;;;;;;;0.10;0.10;;;;;;;19.81;76.71;100941.06;10412187;28;20476;-66
2021/07/05 07:35:39;;;;;;;0.10;0.10;;;;;;;20.28;73.30;100928.06;10448331;28;20460;-66
2021/07/05 07:40:41;;;;;;;0.00;0.00;;;;;;;20.28;71.87;100926.16;10443497;28;20017;-66
2021/07/05 07:45:41;;;;;;;0.05;0.05;;;;;;;20.42;71.94;100929.59;10413142;28;20108;-67
2021/07/05 07:50:42;;;;;;;0.10;0.10;;;;;;;20.52;71.96;100919.13;10446488;28;20113;-66
2021/07/05 07:55:42;;;;;;;0.10;0.10;;;;;;;21.06;71.56;100927.53;10444713;28;20123;-66
2021/07/05 08:00:43;;;;;;;0.10;0.10;;;;;;;21.44;68.61;100921.88;10447950;28;20083;-65
2021/07/05 08:05:43;;;;;;;0.10;0.10;;;;;;;21.43;67.66;100908.53;10428430;28;20025;-66
2021/07/05 08:10:44;;;;;;;0.10;0.10;;;;;;;21.64;67.82;100899.06;10447328;28;20033;-66
2021/07/05 08:15:47;;;;;;;0.10;0.10;;;;;;;21.73;67.89;100911.25;10421263;28;20271;-65
2021/07/05 08:20:49;;;;;;;0.10;0.10;;;;;;;22.48;64.71;100904.44;10440489;28;20021;-66
2021/07/05 08:25:49;;;;;;;0.00;0.00;;;;;;;22.12;66.47;100912.50;10433947;28;20029;-68
2021/07/05 08:30:52;;;;;;;0.10;0.10;;;;;;;21.83;67.32;100919.63;10414031;28;20021;-65
2021/07/05 08:35:53;;;;;;;0.00;0.00;;;;;;;21.65;68.71;100919.72;10413292;28;20116;-66
2021/07/05 08:40:55;;;;;;;0.10;0.10;;;;;;;21.62;66.63;100921.00;10427898;28;20017;-65
2021/07/05 08:46:04;;;;;;;0.00;0.00;;;;;;;21.58;68.98;100918.97;10448916;28;20032;-64
2021/07/05 08:51:11;;;;;;;0.10;0.10;;;;;;;21.74;69.42;100920.22;10421187;28;20062;-65
2021/07/05 08:56:11;;;;;;;0.10;0.10;;;;;;;21.70;67.63;100928.81;10429649;28;20481;-64
2021/07/05 09:01:13;;;;;;;0.10;0.10;;;;;;;21.63;67.40;100916.41;10429220;28;20025;-63
2021/07/05 09:06:13;;;;;;;0.00;0.00;;;;;;;21.83;66.75;100916.94;10440624;28;20028;-64
2021/07/05 09:11:35;;;;;;;0.10;0.10;;;;;;;22.85;64.18;100913.13;10452816;28;20086;-64
2021/07/05 09:16:36;;;;;;;0.10;0.10;;;;;;;23.39;63.01;100916.47;10438369;28;20045;-62
2021/07/05 09:21:37;;;;;;;0.10;0.10;;;;;;;23.06;62.68;100917.13;10416636;28;20018;-62
2021/07/05 09:26:41;;;;;;;0.10;0.10;;;;;;;22.92;63.32;100911.13;10411252;28;20017;-63
2021/07/05 09:31:53;;;;;;;0.10;0.10;;;;;;;22.85;62.56;100909.59;10409591;28;20033;-62
2021/07/05 09:36:57;;;;;;;0.10;0.10;;;;;;;22.83;62.17;100907.13;10411120;28;20021;-59
2021/07/05 09:41:57;;;;;;;0.10;0.10;;;;;;;22.73;64.20;100902.28;10411397;28;20024;-63
2021/07/05 09:46:58;;;;;;;0.10;0.10;;;;;;;22.67;61.62;100918.72;10449932;28;20353;-62
2021/07/05 09:52:07;;;;;;;0.10;0.10;;;;;;;23.11;60.98;100924.59;10451005;28;20029;-62
2021/07/05 09:57:25;;;;;;;0.10;0.10;;;;;;;23.58;61.53;100910.81;10437674;28;20087;-61
2021/07/05 10:02:25;;;;;;;0.10;0.10;;;;;;;23.30;61.25;100917.06;10450797;28;20025;-63
2021/07/05 10:07:26;;;;;;;0.10;0.10;;;;;;;23.20;62.13;100934.81;10450206;28;20029;-63
2021/07/05 10:12:29;;;;;;;0.10;0.10;;;;;;;23.03;61.80;100931.19;10414198;28;20530;-63
2021/07/05 10:17:33;;;;;;;0.10;0.10;;;;;;;23.22;60.83;100921.00;10440968;28;20485;-64
2021/07/05 10:22:33;;;;;;;0.10;0.10;;;;;;;23.89;60.88;100934.81;10409025;28;20392;-61
2021/07/05 10:27:34;;;;;;;0.10;0.10;;;;;;;24.84;59.09;100930.38;10417828;28;20031;-61
2021/07/05 10:32:35;;;;;;;0.10;0.10;;;;;;;25.17;55.11;100936.00;10439218;28;20031;-63
2021/07/05 10:37:51;;;;;;;0.00;0.00;;;;;;;25.03;58.06;100940.97;10449880;28;20021;-62
2021/07/05 10:42:58;;;;;;;0.10;0.10;;;;;;;24.76;58.15;100941.69;10411814;28;20022;-64
2021/07/05 10:47:58;;;;;;;0.10;0.10;;;;;;;24.52;58.14;100932.91;10449496;28;20024;-64
2021/07/05 10:52:58;;;;;;;0.00;0.00;;;;;;;24.46;58.29;100938.50;10449562;28;20246;-62
2021/07/05 10:57:59;;;;;;;0.10;0.10;;;;;;;24.30;56.22;100930.06;10434771;28;20673;-64
2021/07/05 11:02:59;;;;;;;0.00;0.00;;;;;;;24.10;58.36;100927.84;10432917;28;20045;-63
2021/07/05 11:08:18;;;;;;;0.00;0.00;;;;;;;23.95;59.91;100927.59;10413212;28;20017;-63
2021/07/05 11:13:20;;;;;;;0.10;0.10;;;;;;;23.71;55.77;100924.16;10415166;28;20460;-62
2021/07/05 11:18:35;;;;;;;0.10;0.10;;;;;;;23.69;59.77;100929.81;10439774;28;20391;-62
2021/07/05 11:24:02;;;;;;;0.10;0.10;;;;;;;23.58;57.71;100927.16;10438030;28;20020;-65
2021/07/05 11:29:15;;;;;;;0.00;0.00;;;;;;;23.39;59.17;100934.69;10448420;28;20021;-65
2021/07/05 11:34:32;;;;;;;0.10;0.10;;;;;;;23.19;61.07;100935.91;10448138;28;20581;-65
2021/07/05 11:39:32;;;;;;;0.10;0.10;;;;;;;22.99;60.39;100935.47;10448705;28;20074;-62
2021/07/05 11:44:48;;;;;;;0.00;0.00;;;;;;;22.84;60.70;100930.50;10420130;28;20096;-65
2021/07/05 11:49:49;;;;;;;0.05;0.05;;;;;;;22.81;60.63;100936.41;10408312;28;20029;-64
2021/07/05 11:54:59;;;;;;;0.10;0.10;;;;;;;22.65;61.94;100931.69;10416946;28;20024;-63
2021/07/05 12:00:05;;;;;;;0.10;0.10;;;;;;;22.68;65.09;100934.75;10458083;23;20416;-60
2021/07/05 12:05:08;;;;;;;0.10;0.10;;;;;;;22.57;64.76;100943.72;10422654;28;20026;-61
2021/07/05 12:10:10;;;;;;;0.10;0.10;;;;;;;22.22;66.62;100941.81;10435152;28;20115;-61
2021/07/05 12:15:11;;;;;;;0.10;0.10;;;;;;;21.79;67.04;100947.47;10445883;28;20028;-61
2021/07/05 12:20:11;;;;;;;0.10;0.10;;;;;;;21.17;69.28;100948.41;10414007;28;20032;-64
2021/07/05 12:25:14;;;;;;;0.10;0.10;;;;;;;20.54;70.50;100954.91;10433813;28;20600;-64
2021/07/05 12:30:19;;;;;;;0.00;0.00;;;;;;;19.77;72.93;100972.28;10428943;28;20286;-64
2021/07/05 12:35:20;;;;;;;0.10;0.10;;;;;;;18.83;74.67;100987.94;10425287;28;20033;-64
2021/07/05 12:40:24;;;;;;;0.00;0.00;;;;;;;18.10;76.18;101018.38;10401229;28;20017;-64
2021/07/05 12:45:29;;;;;;;0.10;0.10;;;;;;;17.60;79.69;101020.47;10384199;28;20550;-65
2021/07/05 12:50:37;;;;;;;0.10;0.10;;;;;;;17.48;82.20;100992.41;10426216;28;20463;-64
2021/07/05 12:55:54;;;;;;;0.10;0.10;;;;;;;17.36;82.16;101005.63;10453544;28;20025;-63
2021/07/05 13:00:54;;;;;;;0.10;0.10;;;;;;;17.16;82.85;101010.06;10427221;28;20108;-64
2021/07/05 13:06:08;;;;;;;0.10;0.10;;;;;;;17.00;83.25;101019.28;10412122;28;20510;-64
2021/07/05 13:11:14;;;;;;;0.10;0.10;;;;;;;16.86;83.57;101012.16;10438779;28;20112;-63
2021/07/05 13:16:18;;;;;;;0.10;0.10;;;;;;;16.77;83.80;101014.16;10452940;28;20024;-63
2021/07/05 13:21:34;;;;;;;0.10;0.10;;;;;;;16.85;82.99;101023.94;10436538;28;20020;-64
2021/07/05 13:26:38;;;;;;;0.10;0.10;;;;;;;17.02;83.75;101027.19;10452789;28;20029;-65
2021/07/05 13:31:39;;;;;;;0.10;0.10;;;;;;;17.17;83.57;101041.34;10427007;28;20482;-64
2021/07/05 13:36:51;;;;;;;0.10;0.10;;;;;;;17.20;82.82;101046.34;10431181;28;20024;-64
2021/07/05 13:41:51;;;;;;;0.10;0.10;;;;;;;17.23;82.50;101034.34;10433813;28;20375;-66
2021/07/05 13:47:10;;;;;;;0.10;0.10;;;;;;;17.40;82.53;101033.81;10439029;28;20021;-64
2021/07/05 13:52:31;;;;;;;0.10;0.10;;;;;;;17.66;81.90;101037.69;10425945;28;20024;-64
2021/07/05 13:57:31;;;;;;;0.10;0.10;;;;;;;18.15;80.65;101033.94;10415849;28;20021;-64
2021/07/05 14:02:31;;;;;;;0.10;0.10;;;;;;;18.57;76.84;101021.13;10444424;28;20028;-64
2021/07/05 14:07:31;;;;;;;0.10;0.10;;;;;;;18.99;78.12;101030.69;10438707;28;20159;-63
2021/07/05 14:12:32;;;;;;;0.10;0.10;;;;;;;19.33;73.27;101034.13;10444020;28;20020;-63
2021/07/05 14:17:32;;;;;;;0.10;0.10;;;;;;;19.83;77.48;101030.88;10429875;28;20360;-63
2021/07/05 14:22:33;;;;;;;0.10;0.10;;;;;;;20.52;70.53;101021.09;10429880;28;20070;-63
2021/07/05 14:27:34;;;;;;;0.10;0.10;;;;;;;20.82;71.78;101017.75;10438420;28;20056;-63
2021/07/05 14:32:35;;;;;;;0.10;0.10;;;;;;;21.02;67.13;101004.84;10440396;28;20027;-64
2021/07/05 14:37:35;;;;;;;0.10;0.10;;;;;;;21.10;70.45;101014.56;10429809;28;20502;-63
2021/07/05 14:42:37;;;;;;;0.10;0.10;;;;;;;21.18;71.45;101022.41;10420529;28;20112;-64
2021/07/05 14:47:37;;;;;;;0.10;0.10;;;;;;;21.19;68.24;101008.59;10431713;28;20584;-63
2021/07/05 14:52:41;;;;;;;0.00;0.00;;;;;;;21.25;67.78;101013.13;10403894;28;20021;-64
2021/07/05 14:57:41;;;;;;;0.10;0.10;;;;;;;21.32;70.50;101004.09;10424247;28;20123;-63
2021/07/05 15:02:42;;;;;;;0.10;0.10;;;;;;;21.32;67.85;101004.94;10430980;28;20419;-64
2021/07/05 15:07:43;;;;;;;0.10;0.10;;;;;;;21.51;69.66;101004.97;10435583;28;20033;-62
2021/07/05 15:12:45;;;;;;;0.10;0.10;;;;;;;21.63;66.87;101003.13;10417937;28;20546;-64
2021/07/05 15:17:46;;;;;;;0.10;0.10;;;;;;;21.37;69.30;101004.28;10407750;28;20477;-63
2021/07/05 15:22:46;;;;;;;0.00;0.00;;;;;;;21.33;67.18;101000.34;10426359;28;20079;-62
2021/07/05 15:27:46;;;;;;;0.10;0.10;;;;;;;21.07;70.12;101005.00;10435534;28;20021;-64
2021/07/05 15:32:47;;;;;;;0.10;0.10;;;;;;;20.75;68.67;101007.81;10432998;28;20029;-63
2021/07/05 15:37:47;;;;;;;0.10;0.10;;;;;;;20.48;69.89;101015.28;10429479;28;20091;-62
2021/07/05 15:42:47;;;;;;;0.10;0.10;;;;;;;20.22;70.26;101018.19;10423550;28;20264;-61
2021/07/05 15:47:48;;;;;;;0.00;0.00;;;;;;;20.44;70.58;101016.75;10439403;28;20155;-61
2021/07/05 15:52:49;;;;;;;0.03;0.03;;;;;;;20.65;70.34;101007.47;10450214;28;20518;-60
2021/07/05 15:57:49;;;;;;;0.10;0.10;;;;;;;20.60;68.98;101009.19;10440952;28;20539;-61
2021/07/05 16:02:49;;;;;;;0.00;0.00;;;;;;;20.59;69.75;101002.94;10397413;28;20498;-60
2021/07/05 16:07:50;;;;;;;0.10;0.10;;;;;;;20.76;71.36;100998.63;10425653;28;20021;-59
2021/07/05 16:12:50;;;;;;;0.10;0.10;;;;;;;21.01;70.80;100995.88;10421072;28;20056;-62
2021/07/05 16:17:51;;;;;;;0.10;0.10;;;;;;;21.28;67.93;100990.19;10428868;28;20457;-62
2021/07/05 16:22:51;;;;;;;0.10;0.10;;;;;;;21.61;66.39;100987.13;10426452;28;20035;-62
2021/07/05 16:27:52;;;;;;;0.10;0.10;;;;;;;21.80;68.04;101001.44;10432170;28;20036;-59
2021/07/05 16:32:53;;;;;;;0.10;0.10;;;;;;;21.61;65.52;101000.66;10435188;28;20476;-62
2021/07/05 16:37:53;;;;;;;0.00;0.00;;;;;;;21.52;67.58;101007.44;10438496;28;20036;-61
2021/07/05 16:42:53;;;;;;;0.10;0.10;;;;;;;21.23;68.38;101006.28;10445363;28;20032;-61
2021/07/05 16:47:54;;;;;;;0.10;0.10;;;;;;;20.78;69.08;101006.53;10416179;28;20029;-61
2021/07/05 16:52:57;;;;;;;0.10;0.10;;;;;;;20.39;68.36;101007.63;10404936;28;20044;-60
2021/07/05 16:57:57;;;;;;;0.00;0.00;;;;;;;20.04;72.53;101010.78;10393421;28;20507;-60
2021/07/05 17:03:03;;;;;;;0.10;0.10;;;;;;;19.82;72.47;101005.72;10412547;28;20039;-62
2021/07/05 17:08:04;;;;;;;0.10;0.10;;;;;;;19.77;72.40;101000.13;10396372;28;20033;-62
2021/07/05 17:13:05;;;;;;;0.10;0.10;;;;;;;19.83;72.68;101004.66;10413610;28;20049;-62
2021/07/05 17:18:07;;;;;;;0.10;0.10;;;;;;;19.87;73.55;101014.00;10414373;28;20029;-60
2021/07/05 17:23:07;;;;;;;0.10;0.10;;;;;;;19.79;71.96;101006.16;10412602;28;20078;-63
2021/07/05 17:28:07;;;;;;;0.10;0.10;;;;;;;19.70;73.55;101010.16;10413354;28;20022;-60
2021/07/05 17:33:08;;;;;;;0.10;0.10;;;;;;;19.68;71.84;101004.13;10412919;28;20029;-64
2021/07/05 17:38:08;;;;;;;0.10;0.10;;;;;;;19.56;72.71;101008.50;10395121;28;20032;-62
2021/07/05 17:43:08;;;;;;;0.00;0.00;;;;;;;19.55;73.10;101021.19;10412431;28;20268;-62
2021/07/05 17:48:09;;;;;;;0.10;0.10;;;;;;;19.53;71.94;101017.88;10412385;28;20040;-62
2021/07/05 17:53:09;;;;;;;0.10;0.10;;;;;;;19.49;71.15;101011.25;10406453;28;20035;-62
2021/07/05 17:58:09;;;;;;;0.10;0.10;;;;;;;19.43;72.36;101021.03;10425179;22;20322;-60
2021/07/05 18:03:10;;;;;;;0.10;0.10;;;;;;;19.42;71.76;101032.03;10426584;28;20083;-60
2021/07/05 18:08:10;;;;;;;0.10;0.10;;;;;;;19.37;72.92;101019.19;10409417;28;20048;-59
2021/07/05 18:13:11;;;;;;;0.10;0.10;;;;;;;19.26;73.48;101024.38;10409143;28;20088;-58
2021/07/05 18:18:21;;;;;;;0.10;0.10;;;;;;;19.18;74.15;101034.38;10408924;28;20025;-59
2021/07/05 18:23:21;;;;;;;0.10;0.10;;;;;;;19.09;73.81;101024.84;10408590;28;20030;-59
2021/07/05 18:28:22;;;;;;;0.10;0.10;;;;;;;19.03;73.95;101025.69;10395195;28;20021;-61
2021/07/05 18:33:25;;;;;;;0.10;0.10;;;;;;;18.94;74.75;101027.78;10366736;28;20022;-60
2021/07/05 18:38:29;;;;;;;0.10;0.10;;;;;;;18.80;77.94;101052.28;10367611;28;20030;-59
2021/07/05 18:43:37;;;;;;;0.10;0.10;;;;;;;18.69;78.30;101051.00;10366541;28;20025;-57
2021/07/05 18:48:37;;;;;;;0.10;0.10;;;;;;;18.58;79.74;101048.91;10366914;28;20042;-60
2021/07/05 18:53:40;;;;;;;0.10;0.10;;;;;;;18.43;80.37;101058.03;10365983;28;20056;-60
2021/07/05 18:58:41;;;;;;;0.00;0.00;;;;;;;18.30;80.63;101041.84;10362487;28;20183;-57
2021/07/05 19:03:41;;;;;;;0.10;0.10;;;;;;;18.18;81.45;101035.38;10365488;28;20084;-60
2021/07/05 19:08:44;;;;;;;0.10;0.10;;;;;;;18.03;82.14;101030.16;10366241;28;20064;-57
2021/07/05 19:13:44;;;;;;;0.10;0.10;;;;;;;17.86;82.26;101041.31;10365754;28;20097;-59
2021/07/05 19:18:45;;;;;;;0.10;0.10;;;;;;;17.72;83.00;101041.44;10364488;28;20029;-59
2021/07/05 19:23:45;;;;;;;0.10;0.10;;;;;;;17.56;83.37;101040.72;10365537;28;20268;-60
2021/07/05 19:28:46;;;;;;;0.10;0.10;;;;;;;17.44;83.37;101053.09;10361262;28;20426;-61
2021/07/05 19:33:46;;;;;;;0.10;0.10;;;;;;;17.38;83.58;101057.41;10365071;28;20037;-59
2021/07/05 19:38:47;;;;;;;0.10;0.10;;;;;;;17.23;84.33;101047.81;10366033;28;20037;-59
2021/07/05 19:43:47;;;;;;;0.10;0.10;;;;;;;17.05;85.16;101037.53;10365229;28;20049;-58
2021/07/05 19:48:48;;;;;;;0.10;0.10;;;;;;;16.89;85.50;101046.72;10365288;28;20056;-59
2021/07/05 19:53:49;;;;;;;0.10;0.10;;;;;;;16.77;86.17;101056.38;10364662;28;20030;-59
2021/07/05 19:58:49;;;;;;;0.10;0.10;;;;;;;16.66;86.48;101061.19;10360822;28;20041;-59
2021/07/05 20:03:49;;;;;;;0.10;0.10;;;;;;;16.52;86.90;101075.53;10364527;28;20022;-60
2021/07/05 20:08:50;;;;;;;0.10;0.10;;;;;;;16.38;87.55;101073.78;10364931;28;20032;-59
2021/07/05 20:13:50;;;;;;;0.10;0.10;;;;;;;16.27;87.71;101073.25;10365366;28;20497;-57
2021/07/05 20:18:50;;;;;;;0.10;0.10;;;;;;;16.22;88.35;101066.75;10372151;28;20033;-59
2021/07/05 20:23:51;;;;;;;0.10;0.10;;;;;;;16.18;88.17;101068.19;10371746;28;20026;-57
2021/07/05 20:28:51;;;;;;;0.10;0.10;;;;;;;16.11;88.11;101065.41;10367698;28;20086;-59
2021/07/05 20:33:51;;;;;;;0.10;0.10;;;;;;;16.00;88.08;101063.22;10371035;28;20342;-56
2021/07/05 20:38:52;;;;;;;0.10;0.10;;;;;;;15.81;88.03;101061.94;10369459;28;20043;-59
2021/07/05 20:43:52;;;;;;;0.00;0.00;;;;;;;15.61;89.16;101067.84;10368693;28;20461;-60
2021/07/05 20:48:53;;;;;;;0.10;0.10;;;;;;;15.53;89.70;101069.81;10365448;28;20033;-60
2021/07/05 20:53:54;;;;;;;0.10;0.10;;;;;;;15.46;89.59;101058.16;10367734;28;20030;-59
2021/07/05 20:58:58;;;;;;;0.10;0.10;;;;;;;15.36;90.13;101056.59;10365312;28;20025;-58
2021/07/05 21:03:58;;;;;;;0.10;0.10;;;;;;;15.31;90.31;101055.47;10364397;28;20376;-59
2021/07/05 21:08:59;;;;;;;0.10;0.10;;;;;;;15.24;91.11;101063.44;10368657;28;20022;-60
2021/07/05 21:13:59;;;;;;;0.10;0.10;;;;;;;15.22;91.07;101056.59;10368361;28;20041;-59
2021/07/05 21:19:01;;;;;;;0.10;0.10;;;;;;;15.22;91.60;101051.22;10367976;28;20620;-60
2021/07/05 21:24:01;;;;;;;0.10;0.10;;;;;;;15.20;91.58;101047.88;10368614;28;20018;-59
2021/07/05 21:29:02;;;;;;;0.10;0.10;;;;;;;15.19;91.48;101051.59;10364912;28;20022;-59
2021/07/05 21:34:02;;;;;;;0.10;0.10;;;;;;;15.17;91.60;101044.53;10367059;28;20032;-59
2021/07/05 21:39:03;;;;;;;0.10;0.10;;;;;;;15.07;90.66;101038.63;10367613;28;20025;-60
2021/07/05 21:44:04;;;;;;;0.10;0.10;;;;;;;14.96;90.32;101025.66;10367526;28;20060;-60
2021/07/05 21:49:04;;;;;;;0.10;0.10;;;;;;;14.87;90.18;101022.22;10367353;28;20533;-60
2021/07/05 21:54:04;;;;;;;0.10;0.10;;;;;;;14.80;90.71;101020.44;10366668;28;20269;-60
2021/07/05 21:59:05;;;;;;;0.10;0.10;;;;;;;14.77;91.45;101024.31;10363733;28;20295;-60
2021/07/05 22:04:05;;;;;;;0.10;0.10;;;;;;;14.80;91.96;101015.91;10366205;28;20272;-59
2021/07/05 22:09:05;;;;;;;0.10;0.10;;;;;;;14.85;92.21;101013.53;10366725;28;20022;-59
2021/07/05 22:14:06;;;;;;;0.10;0.10;;;;;;;14.92;92.20;101003.75;10366342;28;20276;-60
2021/07/05 22:19:06;;;;;;;0.10;0.10;;;;;;;14.94;92.74;101000.84;10366325;28;20275;-59
2021/07/05 22:24:07;;;;;;;0.10;0.10;;;;;;;14.97;92.78;100997.81;10365783;28;20483;-57
2021/07/05 22:29:07;;;;;;;0.10;0.10;;;;;;;14.98;92.81;100985.22;10362058;28;20033;-58
2021/07/05 22:34:08;;;;;;;0.10;0.10;;;;;;;15.01;92.41;100991.09;10365145;28;20406;-59
2021/07/05 22:39:08;;;;;;;0.10;0.10;;;;;;;15.00;92.75;100980.53;10363795;28;20096;-57
2021/07/05 22:44:08;;;;;;;0.10;0.10;;;;;;;14.94;92.59;100974.88;10365549;28;20025;-56
2021/07/05 22:49:08;;;;;;;0.10;0.10;;;;;;;14.86;92.68;100980.31;10365118;28;20030;-59
2021/07/05 22:54:09;;;;;;;0.10;0.10;;;;;;;14.85;93.20;100975.97;10365385;28;20026;-56
2021/07/05 22:59:09;;;;;;;0.10;0.10;;;;;;;14.88;93.40;100970.25;10364959;28;20156;-60
2021/07/05 23:04:10;;;;;;;0.10;0.10;;;;;;;14.89;93.63;100971.06;10363125;28;20610;-60
2021/07/05 23:09:10;;;;;;;0.10;0.10;;;;;;;14.92;94.04;100965.34;10364854;28;20354;-60